createdAt,value
2023-07-16T00:00:00.151Z,22.38
2023-07-16T00:05:00.197Z,22.31
2023-07-16T00:10:00.135Z,22.31
2023-07-16T00:15:00.150Z,22.13
2023-07-16T00:20:00.142Z,21.94
2023-07-16T00:25:00.197Z,21.75
2023-07-16T00:30:00.151Z,21.56
2023-07-16T00:35:00.124Z,21.5
2023-07-16T00:40:00.098Z,21.31
2023-07-16T00:45:00.158Z,21.25
2023-07-16T00:50:00.129Z,21.25
2023-07-16T00:55:00.085Z,21.13
2023-07-16T01:00:00.133Z,21.13
2023-07-16T01:05:00.846Z,21.13
2023-07-16T01:10:00.105Z,21.13
2023-07-16T01:15:00.106Z,21.13
2023-07-16T01:20:00.084Z,21.06
2023-07-16T01:25:00.132Z,21.13
2023-07-16T01:30:00.107Z,21.06
2023-07-16T01:35:00.119Z,21.13
2023-07-16T01:40:00.092Z,21.13
2023-07-16T01:45:00.150Z,21.13
2023-07-16T01:50:00.131Z,21.06
2023-07-16T01:55:00.157Z,21.06
2023-07-16T02:00:00.148Z,20.81
2023-07-16T02:05:00.176Z,20.63
2023-07-16T02:10:00.107Z,20.5
2023-07-16T02:15:00.121Z,20.5
2023-07-16T02:20:00.122Z,20.56
2023-07-16T02:25:00.125Z,20.63
2023-07-16T02:30:00.097Z,20.69
2023-07-16T02:35:00.157Z,20.81
2023-07-16T02:40:00.122Z,20.81
2023-07-16T02:45:00.107Z,20.88
2023-07-16T02:50:00.132Z,20.94
2023-07-16T02:55:00.107Z,21
2023-07-16T03:00:00.164Z,21.06
2023-07-16T03:05:00.172Z,21.06
2023-07-16T03:10:00.133Z,20.88
2023-07-16T03:15:00.145Z,20.81
2023-07-16T03:20:00.124Z,20.81
2023-07-16T03:25:00.131Z,20.75
2023-07-16T03:30:00.220Z,20.69
2023-07-16T03:35:00.116Z,20.69
2023-07-16T03:40:00.135Z,20.63
2023-07-16T03:45:00.141Z,20.56
2023-07-16T03:50:00.147Z,20.56
2023-07-16T03:55:00.170Z,20.56
2023-07-16T04:00:00.183Z,20.69
2023-07-16T04:05:00.171Z,20.69
2023-07-16T04:10:00.083Z,20.69
2023-07-16T04:15:00.100Z,20.69
2023-07-16T04:20:00.154Z,20.69
2023-07-16T04:25:00.171Z,20.75
2023-07-16T04:30:00.160Z,21.13
2023-07-16T04:35:00.123Z,21.94
2023-07-16T04:40:00.175Z,23
2023-07-16T04:45:00.185Z,24.06
2023-07-16T04:50:00.446Z,24.88
2023-07-16T04:55:00.096Z,24.69
2023-07-16T05:00:00.136Z,24.31
2023-07-16T05:05:00.153Z,23.94
2023-07-16T05:10:00.157Z,23.69
2023-07-16T05:15:00.146Z,24.13
2023-07-16T05:20:00.185Z,26.69
2023-07-16T05:25:00.128Z,28.69
2023-07-16T05:30:00.128Z,29.81
2023-07-16T05:35:02.276Z,30.13
2023-07-16T05:40:00.152Z,28.88
2023-07-16T05:45:00.154Z,27.88
2023-07-16T05:50:00.179Z,27.38
2023-07-16T05:55:00.103Z,26.75
2023-07-16T06:00:00.204Z,26.56
2023-07-16T06:05:00.150Z,28.94
2023-07-16T06:10:00.102Z,31.25
2023-07-16T06:15:00.100Z,33.69
2023-07-16T06:20:00.119Z,35.5
2023-07-16T06:25:00.156Z,35.88
2023-07-16T06:30:00.160Z,36
2023-07-16T06:35:00.110Z,36.31
2023-07-16T06:40:00.095Z,36.06
2023-07-16T06:45:00.128Z,35.5
2023-07-16T06:50:00.112Z,36.25
2023-07-16T06:55:00.097Z,36.94
2023-07-16T07:00:00.210Z,35.94
2023-07-16T07:05:00.136Z,35.81
2023-07-16T07:10:00.118Z,36.69
2023-07-16T07:15:00.151Z,35.88
2023-07-16T07:20:00.130Z,36.06
2023-07-16T07:25:00.120Z,36.69
2023-07-16T07:30:00.135Z,37.81
2023-07-16T07:35:02.192Z,39.06
2023-07-16T07:40:00.114Z,39.5
2023-07-16T07:45:00.143Z,39.19
2023-07-16T07:50:00.137Z,38.5
2023-07-16T07:55:00.118Z,39
2023-07-16T08:00:00.214Z,39.88
2023-07-16T08:05:01.545Z,40.25
2023-07-16T08:10:00.126Z,41.06
2023-07-16T08:15:00.147Z,39.56
2023-07-16T08:20:00.098Z,39.38
2023-07-16T08:25:00.126Z,40.63
2023-07-16T08:30:00.255Z,40.5
2023-07-16T08:35:00.098Z,41.63
2023-07-16T08:40:00.191Z,42.56
2023-07-16T08:45:00.165Z,43.31
2023-07-16T08:50:00.087Z,43.81
2023-07-16T08:55:00.106Z,44.19
2023-07-16T09:00:00.173Z,44.13
2023-07-16T09:05:00.151Z,44.5
2023-07-16T09:10:00.110Z,42.81
2023-07-16T09:15:00.129Z,42.88
2023-07-16T09:20:00.558Z,43.31
2023-07-16T09:25:00.560Z,43.81
2023-07-16T09:30:00.559Z,44.56
2023-07-16T09:35:00.550Z,45.06
2023-07-16T09:40:00.557Z,44.5
2023-07-16T09:45:00.606Z,43.94
2023-07-16T09:50:00.129Z,41.94
2023-07-16T09:55:00.582Z,42
2023-07-16T10:00:00.598Z,43.44
2023-07-16T10:05:00.578Z,44.06
2023-07-16T10:10:00.549Z,44.31
2023-07-16T10:15:00.550Z,44.69
2023-07-16T10:20:00.529Z,45.56
2023-07-16T10:25:00.548Z,45.56
2023-07-16T10:30:00.581Z,44.88
2023-07-16T10:35:00.560Z,45
2023-07-16T10:40:00.563Z,44.56
2023-07-16T10:45:00.599Z,45.19
2023-07-16T10:50:00.574Z,45.31
2023-07-16T10:55:00.575Z,45.13
2023-07-16T11:05:00.207Z,45.38
2023-07-16T11:10:00.112Z,45.19
2023-07-16T11:15:00.564Z,45.19
2023-07-16T11:20:00.730Z,44.31
2023-07-16T11:25:00.605Z,43.75
2023-07-16T11:30:00.572Z,42.81
2023-07-16T11:35:00.640Z,41.63
2023-07-16T11:40:00.525Z,41.19
2023-07-16T11:45:00.595Z,40.69
2023-07-16T11:50:00.156Z,40.13
2023-07-16T11:55:00.178Z,38.81
2023-07-16T12:00:00.195Z,37.63
2023-07-16T12:05:00.208Z,35.38
2023-07-16T12:10:00.143Z,33.25
2023-07-16T12:15:00.635Z,31.94
2023-07-16T12:20:00.532Z,30.75
2023-07-16T12:25:00.569Z,30.19
2023-07-16T12:30:00.563Z,29.94
2023-07-16T12:35:00.543Z,29.63
2023-07-16T12:40:00.735Z,29.38
2023-07-16T12:45:00.582Z,29.31
2023-07-16T12:50:00.534Z,29.63
2023-07-16T12:55:00.546Z,29.44
2023-07-16T13:00:00.574Z,29.19
2023-07-16T13:05:00.609Z,29.19
2023-07-16T13:10:12.620Z,29.06
2023-07-16T13:15:00.532Z,29.06
2023-07-16T13:20:00.583Z,28.88
2023-07-16T13:25:00.195Z,28.94
2023-07-16T13:30:00.134Z,29.06
2023-07-16T13:35:00.579Z,28.81
2023-07-16T13:40:00.146Z,28.81
2023-07-16T13:45:00.581Z,28.69
2023-07-16T13:50:00.610Z,28.56
2023-07-16T13:55:00.279Z,28.5
2023-07-16T14:00:00.536Z,28.44
2023-07-16T14:05:00.582Z,28.69
2023-07-16T14:10:00.554Z,28.94
2023-07-16T14:15:00.796Z,28.75
2023-07-16T14:20:00.601Z,28.5
2023-07-16T14:25:00.675Z,28.38
2023-07-16T14:30:06.487Z,28.25
2023-07-16T14:35:00.563Z,27.94
2023-07-16T14:40:00.135Z,27.81
2023-07-16T14:45:00.592Z,27.88
2023-07-16T14:50:00.193Z,28
2023-07-16T14:55:00.102Z,28
2023-07-16T15:00:00.195Z,28
2023-07-16T15:05:00.178Z,27.81
2023-07-16T15:10:00.131Z,27.63
2023-07-16T15:15:00.167Z,27.63
2023-07-16T15:20:00.171Z,27.69
2023-07-16T15:25:00.164Z,27.69
2023-07-16T15:30:00.152Z,27.63
2023-07-16T15:35:00.135Z,27.63
2023-07-16T15:40:00.221Z,27.69
2023-07-16T15:45:00.142Z,27.63
2023-07-16T15:50:00.139Z,27.69
2023-07-16T15:55:00.164Z,27.75
2023-07-16T16:00:00.145Z,27.63
2023-07-16T16:05:00.127Z,27.56
2023-07-16T16:10:00.140Z,27.5
2023-07-16T16:15:00.099Z,27.5
2023-07-16T16:20:00.131Z,27.63
2023-07-16T16:25:00.172Z,27.56
2023-07-16T16:30:00.132Z,27.5
2023-07-16T16:35:00.124Z,27.5
2023-07-16T16:40:00.170Z,27.44
2023-07-16T16:45:00.202Z,27.38
2023-07-16T16:50:00.153Z,27.31
2023-07-16T16:55:00.218Z,27.19
2023-07-16T17:00:00.141Z,27.25
2023-07-16T17:05:00.213Z,27.13
2023-07-16T17:10:00.163Z,27.13
2023-07-16T17:15:00.152Z,27.06
2023-07-16T17:20:00.109Z,27.06
2023-07-16T17:25:00.163Z,27.06
2023-07-16T17:30:00.243Z,26.88
2023-07-16T17:35:00.128Z,26.81
2023-07-16T17:40:00.228Z,26.69
2023-07-16T17:45:00.145Z,26.63
2023-07-16T17:50:00.300Z,26.44
2023-07-16T17:55:00.219Z,26.31
2023-07-16T18:00:09.018Z,26.19
2023-07-16T18:05:00.300Z,26.06
2023-07-16T18:10:00.162Z,25.94
2023-07-16T18:15:00.113Z,25.81
2023-07-16T18:20:00.135Z,25.75
2023-07-16T18:25:00.159Z,25.63
2023-07-16T18:30:00.125Z,25.44
2023-07-16T18:35:00.123Z,25.31
2023-07-16T18:40:00.168Z,25.25
2023-07-16T18:45:00.275Z,25.06
2023-07-16T18:50:00.145Z,24.94
2023-07-16T18:55:00.131Z,24.81
2023-07-16T19:00:00.298Z,24.69
2023-07-16T19:05:00.145Z,24.44
2023-07-16T19:10:00.132Z,24.31
2023-07-16T19:15:00.102Z,24.19
2023-07-16T19:20:00.236Z,23.94
2023-07-16T19:25:00.189Z,23.75
2023-07-16T19:30:00.189Z,23.69
2023-07-16T19:35:00.113Z,23.5
2023-07-16T19:40:00.159Z,23.38
2023-07-16T19:45:00.147Z,23.25
2023-07-16T19:50:00.108Z,23.06
2023-07-16T19:55:00.117Z,22.88
2023-07-16T20:00:00.206Z,22.75
2023-07-16T20:05:00.217Z,22.56
2023-07-16T20:10:01.123Z,22.5
2023-07-16T20:15:00.129Z,22.38
2023-07-16T20:20:00.119Z,22.25
2023-07-16T20:25:00.121Z,22.13
2023-07-16T20:30:00.184Z,22.13
2023-07-16T20:35:00.104Z,22
2023-07-16T20:40:00.166Z,21.94
2023-07-16T20:45:00.134Z,21.81
2023-07-16T20:50:00.147Z,21.75
2023-07-16T20:55:01.702Z,21.69
2023-07-16T21:00:00.207Z,21.56
2023-07-16T21:05:00.162Z,21.5
2023-07-16T21:10:00.133Z,21.44
2023-07-16T21:15:00.123Z,21.44
2023-07-16T21:20:00.146Z,21.38
2023-07-16T21:25:00.150Z,21.38
2023-07-16T21:30:00.211Z,21.31
2023-07-16T21:35:00.131Z,21.31
2023-07-16T21:40:00.089Z,21.25
2023-07-16T21:45:00.192Z,21.25
2023-07-16T21:50:00.119Z,21.13
2023-07-16T21:55:00.141Z,21.06
2023-07-16T22:00:00.239Z,20.94
2023-07-16T22:05:00.182Z,20.88
2023-07-16T22:10:00.154Z,20.75
2023-07-16T22:15:00.103Z,20.69
2023-07-16T22:20:00.110Z,20.63
2023-07-16T22:25:00.160Z,20.5
2023-07-16T22:30:00.124Z,20.5
2023-07-16T22:35:00.097Z,20.44
2023-07-16T22:40:00.132Z,20.31
2023-07-16T22:45:00.138Z,20.25
2023-07-16T22:50:00.118Z,20.13
2023-07-16T22:55:00.094Z,20.06
2023-07-16T23:00:00.114Z,20
2023-07-16T23:05:00.109Z,19.94
2023-07-16T23:10:00.170Z,19.94
2023-07-16T23:15:00.160Z,19.94
2023-07-16T23:20:00.191Z,19.88
2023-07-16T23:25:00.148Z,19.81
2023-07-16T23:30:00.155Z,19.81
2023-07-16T23:35:00.125Z,19.81
2023-07-16T23:40:00.127Z,19.75
2023-07-16T23:45:00.115Z,19.75
2023-07-16T23:50:00.111Z,19.81
2023-07-16T23:55:00.113Z,19.81
